METAR Data

Data at: 2134 UTC 14 Dec 2018

METAR for:KFOK (Westhampton/Gabreski, NY, US)
Text:KFOK 142053Z 00000KT 10SM OVC016 09/06 A3040 RMK AO2 SLP296 T00890061 56002
Temperature: 8.9°C ( 48°F)
Dewpoint: 6.1°C ( 43°F) [RH = 83%]
Pressure (altimeter):30.40 inches Hg (1029.5 mb) [Sea level pressure: 1029.6 mb]
Winds:calm
Visibility:10 or more sm (16+ km)
Ceiling:1600 feet AGL
Clouds: overcast cloud deck at 1600 feet AGL